Time;durP1;ratioP1;P1;durP2;ratioP2;P2;SDS_P1;SDS_P2;PMS_P1;PMS_P2;Temp;Humidity;BMP_temperature;BMP_pressure;BME280_temperature;BME280_humidity;BME280_pressure;Samples;Min_cycle;Max_cycle;Signal;HPM_P1;HPM_P2
2023/06/13 00:01:48;;;;;;;8.10;5.30;;;25.20;50.80;;;;;;4982739;28;88088;-85
2023/06/13 00:04:21;;;;;;;6.68;5.07;;;25.20;50.80;;;;;;4982230;28;88397;-84
2023/06/13 00:06:48;;;;;;;7.18;4.95;;;25.20;50.80;;;;;;4981647;28;87193;-85
2023/06/13 00:09:15;;;;;;;6.95;5.07;;;25.20;50.60;;;;;;4983900;28;87537;-86
2023/06/13 00:11:40;;;;;;;7.15;4.93;;;25.20;50.70;;;;;;4982937;28;89063;-86
2023/06/13 00:14:06;;;;;;;7.60;5.30;;;25.20;50.80;;;;;;4984563;28;86838;-85
2023/06/13 00:16:32;;;;;;;6.60;4.78;;;25.20;50.90;;;;;;4984633;28;87920;-85
2023/06/13 00:18:58;;;;;;;7.70;4.90;;;25.20;50.90;;;;;;4982725;28;87422;-85
2023/06/13 00:21:24;;;;;;;6.20;4.70;;;25.20;51.00;;;;;;4985038;28;89054;-86
2023/06/13 00:23:49;;;;;;;6.50;4.95;;;25.20;50.90;;;;;;4983980;28;88075;-85
2023/06/13 00:26:15;;;;;;;6.30;4.82;;;25.20;50.80;;;;;;4982944;28;87584;-84
2023/06/13 00:28:40;;;;;;;6.93;5.05;;;25.20;50.90;;;;;;4981823;28;87396;-84
2023/06/13 00:31:06;;;;;;;7.70;5.10;;;25.20;51.00;;;;;;4985986;28;88072;-84
2023/06/13 00:33:33;;;;;;;7.78;5.20;;;25.20;51.10;;;;;;4983462;28;88381;-85
2023/06/13 00:35:59;;;;;;;7.25;4.80;;;25.20;51.00;;;;;;4983782;28;87376;-86
2023/06/13 00:38:24;;;;;;;6.82;4.93;;;25.10;50.90;;;;;;4984211;28;87286;-86
2023/06/13 00:40:51;;;;;;;7.82;5.30;;;25.20;51.00;;;;;;4982464;28;90090;-85
2023/06/13 00:43:17;;;;;;;6.55;4.80;;;25.20;51.10;;;;;;4981798;28;88784;-86
2023/06/13 00:45:43;;;;;;;7.38;5.20;;;25.20;51.00;;;;;;4983871;28;88237;-85
2023/06/13 00:48:09;;;;;;;7.07;5.35;;;25.10;51.00;;;;;;4984051;28;87715;-84
2023/06/13 00:50:40;;;;;;;7.18;5.35;;;25.10;51.00;;;;;;4982933;28;87663;-85
2023/06/13 00:53:11;;;;;;;7.03;5.00;;;25.10;50.80;;;;;;4982843;28;87975;-84
2023/06/13 00:55:37;;;;;;;6.07;4.65;;;25.10;50.90;;;;;;4983854;28;88156;-85
2023/06/13 00:58:10;;;;;;;6.65;4.80;;;25.10;51.20;;;;;;4983088;28;87742;-86
2023/06/13 01:00:39;;;;;;;6.82;5.18;;;25.10;50.90;;;;;;4983305;28;87757;-84
2023/06/13 01:03:15;;;;;;;5.97;4.35;;;25.10;50.90;;;;;;4986436;28;88262;-84
2023/06/13 01:05:42;;;;;;;6.85;5.10;;;25.10;51.00;;;;;;4982339;28;87498;-86
2023/06/13 01:08:11;;;;;;;8.55;5.22;;;25.10;51.00;;;;;;4982808;28;88412;-84
2023/06/13 01:10:40;;;;;;;6.38;4.72;;;25.10;51.10;;;;;;4982007;28;88617;-85
2023/06/13 01:13:36;;;;;;;7.82;4.88;;;25.10;51.10;;;;;;4982150;28;87906;-85
2023/06/13 01:16:45;;;;;;;6.30;4.57;;;25.10;51.00;;;;;;4983862;28;87668;-85
2023/06/13 01:19:23;;;;;;;;;;;25.10;51.10;;;;;;4901761;28;87737;-84
2023/06/13 01:21:50;;;;;;;8.60;5.10;;;25.10;51.10;;;;;;4979141;28;88373;-86
2023/06/13 01:24:41;;;;;;;6.63;4.63;;;25.10;51.10;;;;;;4982434;28;87499;-86
2023/06/13 01:27:10;;;;;;;8.25;5.15;;;25.10;51.10;;;;;;4988402;28;87391;-87
2023/06/13 01:29:37;;;;;;;6.27;5.30;;;25.10;51.00;;;;;;4981624;28;88667;-86
2023/06/13 01:32:05;;;;;;;7.25;4.90;;;25.10;51.10;;;;;;4984079;28;88053;-84
2023/06/13 01:34:31;;;;;;;6.38;5.20;;;25.10;51.10;;;;;;4982384;28;87949;-85
2023/06/13 01:36:58;;;;;;;6.95;4.65;;;25.10;51.00;;;;;;4982552;28;88990;-85
2023/06/13 01:39:23;;;;;;;6.18;4.65;;;25.10;51.10;;;;;;4983878;28;88140;-85
2023/06/13 01:41:49;;;;;;;5.72;4.40;;;25.10;51.20;;;;;;4982812;28;88146;-84
2023/06/13 01:44:19;;;;;;;7.63;5.25;;;25.00;51.20;;;;;;4982623;28;87520;-85
2023/06/13 01:47:05;;;;;;;6.45;4.93;;;25.00;51.10;;;;;;4979927;28;87857;-86
2023/06/13 01:50:05;;;;;;;7.30;5.05;;;25.00;51.20;;;;;;4982258;28;88219;-86
2023/06/13 01:52:54;;;;;;;8.65;4.97;;;25.10;51.00;;;;;;4982599;28;88569;-84
2023/06/13 01:55:24;;;;;;;6.03;4.90;;;25.10;51.10;;;;;;4982787;28;88521;-85
2023/06/13 01:58:03;;;;;;;6.55;4.70;;;25.10;51.10;;;;;;4982434;28;87608;-86
2023/06/13 02:00:31;;;;;;;6.88;5.03;;;25.10;51.30;;;;;;4984857;28;87570;-85
2023/06/13 02:02:59;;;;;;;5.97;4.50;;;25.00;51.10;;;;;;4983548;28;89197;-84
2023/06/13 02:05:28;;;;;;;6.18;4.75;;;25.00;51.20;;;;;;4985454;28;88117;-84
2023/06/13 02:07:56;;;;;;;7.20;4.78;;;25.00;51.00;;;;;;4986330;28;87785;-86
2023/06/13 02:10:23;;;;;;;6.53;4.82;;;25.00;51.20;;;;;;4986703;28;88012;-85
2023/06/13 02:12:48;;;;;;;6.72;4.70;;;25.00;51.20;;;;;;4985405;28;88894;-84
2023/06/13 02:15:14;;;;;;;7.10;4.78;;;25.00;51.10;;;;;;4986159;28;88792;-85
2023/06/13 02:17:40;;;;;;;6.28;4.40;;;25.10;51.10;;;;;;4985059;28;87482;-84
2023/06/13 02:20:06;;;;;;;6.57;4.47;;;25.00;51.20;;;;;;4988585;28;87644;-86
2023/06/13 02:22:32;;;;;;;8.30;4.88;;;25.00;51.00;;;;;;4986091;28;87688;-85
2023/06/13 02:24:59;;;;;;;5.43;4.35;;;25.00;51.20;;;;;;4985898;28;87567;-85
2023/06/13 02:27:25;;;;;;;6.75;4.90;;;25.00;51.20;;;;;;4986221;28;88354;-83
2023/06/13 02:29:51;;;;;;;7.35;4.40;;;25.00;51.00;;;;;;4985407;28;88121;-86
2023/06/13 02:32:18;;;;;;;6.75;4.72;;;25.00;51.20;;;;;;4986736;28;87620;-84
2023/06/13 02:34:44;;;;;;;6.75;4.82;;;24.90;51.10;;;;;;4986643;28;87995;-86
2023/06/13 02:37:10;;;;;;;6.30;4.38;;;25.00;51.20;;;;;;4987418;28;87309;-86
2023/06/13 02:39:36;;;;;;;7.22;4.78;;;25.00;51.30;;;;;;4985008;28;87808;-86
2023/06/13 02:42:01;;;;;;;4.97;4.35;;;24.90;51.20;;;;;;4984534;28;87983;-86
2023/06/13 02:44:27;;;;;;;6.32;4.60;;;24.90;51.20;;;;;;4985123;28;87928;-86
2023/06/13 02:46:53;;;;;;;4.60;3.92;;;24.90;51.20;;;;;;4986823;28;87875;-84
2023/06/13 02:49:19;;;;;;;6.00;4.65;;;24.90;51.20;;;;;;4985763;28;87299;-86
2023/06/13 02:51:45;;;;;;;5.68;4.47;;;25.00;51.30;;;;;;4984868;28;89759;-86
2023/06/13 02:54:11;;;;;;;5.90;4.50;;;25.00;51.30;;;;;;4986331;28;88759;-86
2023/06/13 02:56:38;;;;;;;5.70;4.60;;;25.00;51.10;;;;;;4984865;28;87399;-85
2023/06/13 02:59:04;;;;;;;6.03;4.10;;;24.90;51.20;;;;;;4982764;28;87964;-86
2023/06/13 03:01:30;;;;;;;5.97;4.63;;;24.90;51.20;;;;;;4984979;28;88880;-85
2023/06/13 03:03:55;;;;;;;6.53;4.18;;;24.90;51.20;;;;;;4987907;28;87427;-85
2023/06/13 03:06:21;;;;;;;6.32;4.50;;;24.90;51.40;;;;;;4984682;28;87709;-84
2023/06/13 03:08:48;;;;;;;6.72;4.35;;;24.90;51.20;;;;;;4987467;28;87073;-85
2023/06/13 03:11:13;;;;;;;6.30;4.70;;;24.90;51.30;;;;;;4984358;28;87951;-85
2023/06/13 03:13:39;;;;;;;6.38;4.45;;;24.90;51.20;;;;;;4988286;28;87638;-84
2023/06/13 03:16:06;;;;;;;6.75;4.90;;;24.90;51.40;;;;;;4982213;28;89187;-85
2023/06/13 03:18:32;;;;;;;4.93;4.30;;;24.90;51.40;;;;;;4981822;28;88034;-83
2023/06/13 03:20:58;;;;;;;5.35;4.40;;;24.90;51.50;;;;;;4985073;28;88471;-84
2023/06/13 03:23:23;;;;;;;6.07;4.65;;;24.90;51.40;;;;;;4985789;28;88382;-86
2023/06/13 03:25:49;;;;;;;6.55;4.65;;;24.90;51.30;;;;;;4983903;28;88057;-84
2023/06/13 03:28:15;;;;;;;5.90;4.70;;;24.90;51.30;;;;;;4982121;28;88079;-84
2023/06/13 03:30:40;;;;;;;4.68;4.10;;;24.90;51.40;;;;;;4986213;28;87593;-85
2023/06/13 03:33:06;;;;;;;5.05;4.05;;;24.90;51.40;;;;;;4987183;28;87375;-85
2023/06/13 03:35:32;;;;;;;6.50;4.53;;;24.90;51.40;;;;;;4985003;28;88029;-85
2023/06/13 03:37:58;;;;;;;5.43;4.15;;;24.90;51.50;;;;;;4984689;28;87321;-86
2023/06/13 03:40:23;;;;;;;4.95;4.20;;;24.90;51.50;;;;;;4987327;28;89269;-86
2023/06/13 03:42:50;;;;;;;6.13;4.50;;;24.90;51.50;;;;;;4983869;28;88709;-84
2023/06/13 03:45:17;;;;;;;4.97;4.18;;;24.90;51.50;;;;;;4986800;28;87611;-85
2023/06/13 03:47:42;;;;;;;7.82;4.82;;;24.90;51.40;;;;;;4984232;28;87967;-84
2023/06/13 03:50:08;;;;;;;5.75;4.10;;;24.90;51.50;;;;;;4983924;28;88222;-84
2023/06/13 03:52:34;;;;;;;4.55;3.95;;;24.90;51.50;;;;;;4983655;28;88041;-86
2023/06/13 03:54:59;;;;;;;5.88;4.32;;;24.90;51.50;;;;;;4984401;28;87399;-85
2023/06/13 03:57:25;;;;;;;5.93;4.55;;;24.90;51.40;;;;;;4984800;28;88413;-84
2023/06/13 03:59:51;;;;;;;5.60;4.50;;;24.90;51.60;;;;;;4983898;28;87815;-84
2023/06/13 04:02:19;;;;;;;4.63;3.97;;;24.80;51.50;;;;;;4984703;28;87875;-85
2023/06/13 04:04:47;;;;;;;4.70;3.88;;;24.80;51.50;;;;;;4980533;28;88425;-85
2023/06/13 04:07:13;;;;;;;4.70;4.20;;;24.80;51.60;;;;;;4983230;28;87563;-84
2023/06/13 04:09:38;;;;;;;5.82;4.10;;;24.90;51.50;;;;;;4981828;28;87976;-84
2023/06/13 04:12:05;;;;;;;5.53;4.22;;;24.90;51.40;;;;;;4982809;28;87786;-86
2023/06/13 04:14:32;;;;;;;6.28;4.72;;;24.90;51.50;;;;;;4985382;28;87476;-84
2023/06/13 04:16:59;;;;;;;4.60;4.15;;;24.90;51.50;;;;;;4985778;28;87638;-84
2023/06/13 04:19:25;;;;;;;7.40;4.85;;;24.90;51.60;;;;;;4985267;28;87571;-84
2023/06/13 04:21:51;;;;;;;6.03;4.45;;;24.90;51.50;;;;;;4984650;28;88099;-84
2023/06/13 04:24:17;;;;;;;5.20;4.22;;;24.90;51.50;;;;;;4985557;28;87791;-84
2023/06/13 04:26:46;;;;;;;5.25;4.18;;;24.90;51.40;;;;;;4982746;28;87498;-84
2023/06/13 04:29:18;;;;;;;6.10;5.20;;;24.90;51.40;;;;;;4982187;28;89735;-85
2023/06/13 04:31:45;;;;;;;5.75;4.53;;;25.00;51.40;;;;;;4983094;28;88838;-85
2023/06/13 04:34:11;;;;;;;6.13;4.45;;;25.00;51.40;;;;;;4982631;28;87720;-86
2023/06/13 04:36:38;;;;;;;5.40;4.35;;;25.00;51.30;;;;;;4982628;28;87902;-86
2023/06/13 04:39:06;;;;;;;5.05;4.47;;;25.00;51.40;;;;;;4982442;28;87999;-86
2023/06/13 04:41:37;;;;;;;6.20;4.63;;;25.00;51.30;;;;;;4982293;28;88510;-86
2023/06/13 04:44:05;;;;;;;4.18;3.78;;;25.10;51.30;;;;;;4983400;28;87068;-85
2023/06/13 04:46:33;;;;;;;5.25;4.18;;;25.10;51.30;;;;;;4985300;28;87297;-85
2023/06/13 04:49:00;;;;;;;5.75;4.65;;;25.10;51.10;;;;;;4984252;28;88592;-85
2023/06/13 04:51:26;;;;;;;4.82;4.00;;;25.20;51.20;;;;;;4984754;28;87315;-84
2023/06/13 04:53:57;;;;;;;4.93;3.97;;;25.10;51.00;;;;;;4980764;28;88636;-85
2023/06/13 04:56:24;;;;;;;5.22;3.85;;;25.20;51.10;;;;;;4982010;28;87599;-85
2023/06/13 04:58:51;;;;;;;4.90;4.35;;;25.20;51.10;;;;;;4983153;28;88449;-85
2023/06/13 05:01:18;;;;;;;4.55;3.88;;;25.20;51.00;;;;;;4983306;28;88289;-85
2023/06/13 05:03:45;;;;;;;4.22;3.70;;;25.20;51.10;;;;;;4983664;28;87583;-85
2023/06/13 05:06:12;;;;;;;4.68;3.88;;;25.20;51.10;;;;;;4983000;28;88018;-85
2023/06/13 05:08:38;;;;;;;5.22;4.20;;;25.20;51.10;;;;;;4982907;28;88003;-85
2023/06/13 05:11:04;;;;;;;4.35;3.90;;;25.20;51.00;;;;;;4986056;28;86696;-84
2023/06/13 05:13:30;;;;;;;4.57;3.70;;;25.30;51.00;;;;;;4984846;28;87464;-84
2023/06/13 05:15:56;;;;;;;4.90;4.28;;;25.30;50.80;;;;;;4984051;28;88045;-84
2023/06/13 05:18:29;;;;;;;5.00;4.07;;;25.30;51.60;;;;;;4982909;28;88675;-86
2023/06/13 05:20:57;;;;;;;5.30;4.03;;;25.30;50.90;;;;;;4983181;28;88047;-84
2023/06/13 05:23:23;;;;;;;5.53;4.25;;;25.40;50.90;;;;;;4982095;28;88026;-86
2023/06/13 05:25:48;;;;;;;5.50;3.90;;;25.40;50.80;;;;;;4983188;28;87788;-85
2023/06/13 05:28:16;;;;;;;4.97;4.00;;;25.40;50.80;;;;;;4982373;28;87817;-84
2023/06/13 05:30:44;;;;;;;4.80;3.90;;;25.40;50.80;;;;;;4982504;28;87343;-85
2023/06/13 05:33:11;;;;;;;5.03;3.97;;;25.50;50.80;;;;;;4982858;28;87525;-84
2023/06/13 05:35:37;;;;;;;5.53;4.65;;;25.50;50.80;;;;;;4983691;28;87059;-85
2023/06/13 05:38:02;;;;;;;5.53;4.13;;;25.50;50.80;;;;;;4984209;28;87671;-85
2023/06/13 05:40:28;;;;;;;4.88;4.07;;;25.50;50.90;;;;;;4984904;28;87735;-84
2023/06/13 05:42:54;;;;;;;4.32;3.70;;;25.50;50.70;;;;;;4980028;28;88386;-84
2023/06/13 05:45:21;;;;;;;5.07;3.90;;;25.60;50.70;;;;;;4982490;28;87532;-85
2023/06/13 05:47:46;;;;;;;4.85;4.18;;;25.60;50.60;;;;;;4982016;28;87589;-87
2023/06/13 05:50:13;;;;;;;4.80;4.25;;;25.60;50.40;;;;;;4982429;28;87471;-85
2023/06/13 05:52:38;;;;;;;4.35;3.55;;;25.70;50.70;;;;;;4982320;28;87369;-84
2023/06/13 05:55:05;;;;;;;5.70;4.32;;;25.70;50.50;;;;;;4981674;28;87668;-84
2023/06/13 05:57:39;;;;;;;4.45;3.70;;;25.80;50.50;;;;;;4980762;28;90426;-84
2023/06/13 06:00:13;;;;;;;4.05;3.65;;;25.80;50.50;;;;;;4983237;28;87722;-87
2023/06/13 06:02:41;;;;;;;4.75;3.88;;;25.80;50.40;;;;;;4983403;28;87403;-84
2023/06/13 06:05:08;;;;;;;4.38;3.85;;;25.80;50.10;;;;;;4983468;28;88069;-86
2023/06/13 06:07:35;;;;;;;4.03;3.30;;;25.90;50.30;;;;;;4981078;28;88478;-83
2023/06/13 06:10:01;;;;;;;4.55;3.85;;;25.90;50.10;;;;;;4985850;28;88104;-84
2023/06/13 06:12:27;;;;;;;7.50;3.70;;;25.80;49.90;;;;;;4982745;28;87453;-84
2023/06/13 06:14:52;;;;;;;6.32;4.80;;;25.70;47.70;;;;;;4983624;28;87885;-84
2023/06/13 06:17:20;;;;;;;10.82;5.18;;;25.60;47.10;;;;;;4986935;28;87606;-85
2023/06/13 06:19:45;;;;;;;8.55;4.72;;;25.50;46.20;;;;;;4982302;28;87873;-84
2023/06/13 06:22:11;;;;;;;8.10;3.95;;;25.50;46.70;;;;;;4989639;28;87940;-86
2023/06/13 06:24:36;;;;;;;5.85;4.07;;;25.50;45.60;;;;;;4985101;28;86952;-86
2023/06/13 06:27:02;;;;;;;8.35;4.57;;;25.30;45.80;;;;;;4983045;28;88771;-84
2023/06/13 06:29:30;;;;;;;5.85;4.50;;;25.30;44.00;;;;;;4983699;28;88442;-83
2023/06/13 06:31:55;;;;;;;8.15;4.40;;;25.30;43.20;;;;;;4983115;28;88725;-84
2023/06/13 06:34:21;;;;;;;8.82;4.82;;;25.30;42.90;;;;;;4984430;28;87484;-86
2023/06/13 06:36:46;;;;;;;8.75;4.57;;;25.20;42.80;;;;;;4982285;28;87442;-84
2023/06/13 06:39:13;;;;;;;8.02;4.50;;;25.20;43.10;;;;;;4983212;28;87885;-82
2023/06/13 06:41:38;;;;;;;4.85;3.60;;;25.20;43.80;;;;;;4983352;28;87673;-85
2023/06/13 06:44:04;;;;;;;10.02;4.22;;;25.10;42.60;;;;;;4982222;28;87911;-86
2023/06/13 06:46:30;;;;;;;10.60;4.55;;;25.10;42.90;;;;;;4980626;28;87970;-83
2023/06/13 06:48:55;;;;;;;8.13;4.60;;;25.10;42.20;;;;;;4984863;28;86747;-84
2023/06/13 06:51:21;;;;;;;8.27;4.75;;;25.10;42.40;;;;;;4985302;28;88038;-84
2023/06/13 06:53:46;;;;;;;8.48;4.30;;;25.10;42.00;;;;;;4987076;28;87934;-83
2023/06/13 06:56:12;;;;;;;8.10;4.68;;;25.10;43.50;;;;;;4983558;28;88957;-88
2023/06/13 06:58:38;;;;;;;4.78;3.65;;;25.10;42.60;;;;;;4987207;28;88141;-85
2023/06/13 07:01:03;;;;;;;7.03;4.43;;;25.20;42.70;;;;;;4989041;28;87207;-89
2023/06/13 07:03:29;;;;;;;7.15;4.50;;;25.20;43.10;;;;;;4991007;28;87378;-88
2023/06/13 07:05:55;;;;;;;6.93;3.53;;;25.20;43.20;;;;;;4993463;28;87741;-85
2023/06/13 07:08:20;;;;;;;7.50;3.58;;;25.20;42.80;;;;;;4989011;28;87974;-86
2023/06/13 07:10:46;;;;;;;24.25;6.32;;;25.20;42.90;;;;;;4986345;28;87547;-87
2023/06/13 07:13:12;;;;;;;78.70;16.20;;;25.30;43.30;;;;;;4991934;28;86486;-85
2023/06/13 07:15:37;;;;;;;73.82;16.33;;;25.30;43.10;;;;;;4985178;28;87942;-83
2023/06/13 07:18:03;;;;;;;68.53;15.55;;;25.30;43.20;;;;;;4984167;28;87396;-83
2023/06/13 07:20:28;;;;;;;43.80;10.70;;;25.30;43.10;;;;;;4983908;28;88857;-87
2023/06/13 07:22:54;;;;;;;54.22;12.80;;;25.30;43.70;;;;;;4983435;28;88458;-84
2023/06/13 07:25:20;;;;;;;48.63;13.80;;;25.30;43.70;;;;;;4984265;28;87573;-83
2023/06/13 07:27:46;;;;;;;57.25;14.65;;;25.30;43.40;;;;;;4984801;28;88039;-84
2023/06/13 07:30:12;;;;;;;55.95;15.85;;;25.30;43.50;;;;;;4981817;28;87738;-84
2023/06/13 07:32:37;;;;;;;51.65;15.30;;;25.30;43.70;;;;;;4984985;28;87707;-85
2023/06/13 07:35:03;;;;;;;52.15;13.93;;;25.30;43.70;;;;;;4983936;28;87744;-84
2023/06/13 07:37:29;;;;;;;46.03;14.10;;;25.30;43.70;;;;;;4986284;28;86980;-87
2023/06/13 07:39:54;;;;;;;52.67;13.85;;;25.30;43.90;;;;;;4984785;28;87505;-83
2023/06/13 07:42:20;;;;;;;49.55;14.05;;;25.30;44.00;;;;;;4986324;28;88135;-83
2023/06/13 07:44:45;;;;;;;47.90;13.85;;;25.30;44.10;;;;;;4985296;28;88809;-82
2023/06/13 07:47:11;;;;;;;41.58;13.13;;;25.30;44.10;;;;;;4986633;28;88663;-86
2023/06/13 07:49:36;;;;;;;39.10;13.13;;;25.30;44.20;;;;;;4982919;28;87828;-85
2023/06/13 07:52:03;;;;;;;48.03;14.18;;;25.30;44.20;;;;;;4984269;28;88055;-85
2023/06/13 07:54:30;;;;;;;42.03;13.68;;;25.30;44.10;;;;;;4988345;28;88787;-83
2023/06/13 07:56:57;;;;;;;38.92;12.85;;;25.30;44.20;;;;;;4983098;28;87917;-85
2023/06/13 07:59:23;;;;;;;38.13;12.82;;;25.30;44.20;;;;;;4986413;28;87853;-83
2023/06/13 08:01:49;;;;;;;36.97;13.10;;;25.30;44.30;;;;;;4983175;28;86965;-85
2023/06/13 08:04:14;;;;;;;43.60;14.13;;;25.40;44.50;;;;;;4986524;28;89251;-88
2023/06/13 08:06:40;;;;;;;40.55;13.18;;;25.30;44.40;;;;;;4986128;28;87626;-84
2023/06/13 08:09:11;;;;;;;42.00;13.57;;;25.40;44.70;;;;;;4982549;28;88958;-84
2023/06/13 08:11:37;;;;;;;39.45;12.45;;;25.40;44.60;;;;;;4986633;28;87900;-86
2023/06/13 08:14:02;;;;;;;42.15;12.50;;;25.40;44.50;;;;;;4988061;28;87937;-85
2023/06/13 08:16:28;;;;;;;37.35;12.90;;;25.40;44.50;;;;;;4987665;28;87415;-86
2023/06/13 08:18:55;;;;;;;36.35;12.32;;;25.40;44.60;;;;;;4935541;28;88652;-87
2023/06/13 08:21:21;;;;;;;30.52;11.70;;;25.40;45.40;;;;;;4992543;28;87096;-85
2023/06/13 08:23:46;;;;;;;41.10;13.90;;;25.40;45.10;;;;;;4987411;28;87656;-88
2023/06/13 08:26:13;;;;;;;30.73;11.73;;;25.40;45.00;;;;;;4987692;28;87388;-86
2023/06/13 08:28:38;;;;;;;34.47;11.93;;;25.40;45.10;;;;;;4986791;28;88001;-83
2023/06/13 08:31:04;;;;;;;38.78;12.02;;;25.40;45.10;;;;;;4987956;28;87310;-88
2023/06/13 08:33:30;;;;;;;39.20;13.77;;;25.40;45.00;;;;;;4988457;28;88848;-88
2023/06/13 08:35:56;;;;;;;33.42;11.48;;;25.40;45.00;;;;;;4986762;28;87676;-84
2023/06/13 08:38:24;;;;;;;32.53;11.95;;;25.40;45.20;;;;;;4985909;28;89179;-84
2023/06/13 08:40:50;;;;;;;32.95;11.65;;;25.40;45.20;;;;;;4986597;28;87782;-87
2023/06/13 08:43:16;;;;;;;30.13;11.55;;;25.40;45.30;;;;;;4986629;28;87719;-84
2023/06/13 08:45:41;;;;;;;35.80;12.30;;;25.30;45.10;;;;;;4985476;28;88513;-88
2023/06/13 08:48:07;;;;;;;35.20;11.57;;;25.40;45.20;;;;;;4985228;28;87508;-85
2023/06/13 08:50:33;;;;;;;32.33;12.63;;;25.40;45.10;;;;;;4985524;28;87597;-86
2023/06/13 08:53:00;;;;;;;28.88;10.57;;;25.30;45.10;;;;;;4988664;28;89295;-84
2023/06/13 08:55:28;;;;;;;29.30;10.88;;;25.40;45.30;;;;;;4986407;28;87886;-86
2023/06/13 08:57:54;;;;;;;26.48;10.48;;;25.40;45.30;;;;;;4985450;28;89202;-87
2023/06/13 09:00:22;;;;;;;33.33;11.05;;;25.40;45.30;;;;;;4985135;28;87919;-85
2023/06/13 09:02:50;;;;;;;25.05;9.95;;;25.40;45.30;;;;;;4983122;28;87531;-87
2023/06/13 09:05:17;;;;;;;29.55;11.25;;;25.40;45.20;;;;;;4986007;28;87358;-86
2023/06/13 09:07:43;;;;;;;23.95;9.88;;;25.40;45.30;;;;;;4981621;28;87982;-86
2023/06/13 09:10:11;;;;;;;26.95;9.38;;;25.40;45.30;;;;;;4985934;28;86964;-87
2023/06/13 09:12:40;;;;;;;28.33;9.63;;;25.40;45.40;;;;;;4984221;28;88778;-84
2023/06/13 09:15:06;;;;;;;22.45;8.68;;;25.40;45.30;;;;;;4987051;28;88380;-85
2023/06/13 09:17:33;;;;;;;19.05;9.45;;;25.40;45.20;;;;;;4989687;28;88016;-85
2023/06/13 09:20:00;;;;;;;20.92;8.98;;;25.40;45.20;;;;;;4985088;28;88072;-84
2023/06/13 09:22:26;;;;;;;22.92;9.57;;;25.40;45.30;;;;;;4989663;28;89653;-85
2023/06/13 09:24:52;;;;;;;21.92;9.10;;;25.40;45.60;;;;;;4987545;28;89187;-88
2023/06/13 09:27:18;;;;;;;20.58;9.05;;;25.30;45.70;;;;;;4990015;28;87525;-87
2023/06/13 09:29:44;;;;;;;25.33;9.93;;;25.40;45.60;;;;;;4990325;28;87557;-88
2023/06/13 09:32:11;;;;;;;22.42;8.85;;;25.40;45.80;;;;;;4989511;28;88939;-88
2023/06/13 09:34:39;;;;;;;22.00;8.68;;;25.40;46.00;;;;;;4990274;28;88691;-84
2023/06/13 09:37:07;;;;;;;22.48;8.88;;;25.50;45.90;;;;;;4989969;28;87697;-86
2023/06/13 09:39:33;;;;;;;18.67;8.10;;;25.50;45.90;;;;;;4987157;28;87027;-84
2023/06/13 09:42:03;;;;;;;18.48;7.72;;;25.50;45.90;;;;;;4986678;28;88518;-86
2023/06/13 09:44:33;;;;;;;18.85;9.25;;;25.50;46.00;;;;;;4984637;28;87666;-83
2023/06/13 09:47:00;;;;;;;18.50;8.85;;;25.50;46.40;;;;;;4985040;28;89239;-87
2023/06/13 09:49:32;;;;;;;19.33;8.57;;;25.50;46.50;;;;;;4986290;28;87948;-87
2023/06/13 09:52:01;;;;;;;23.55;8.80;;;25.50;46.70;;;;;;4982782;28;88812;-87
2023/06/13 09:54:31;;;;;;;17.30;8.02;;;25.50;46.80;;;;;;4984936;28;88371;-83
2023/06/13 09:56:57;;;;;;;15.27;6.97;;;25.50;46.70;;;;;;4984880;28;87495;-82
2023/06/13 09:59:23;;;;;;;16.27;8.20;;;25.40;46.90;;;;;;4982524;28;87595;-82
2023/06/13 10:01:48;;;;;;;22.73;8.75;;;25.40;46.90;;;;;;4984524;28;88188;-83
2023/06/13 10:04:15;;;;;;;19.70;8.85;;;25.50;47.30;;;;;;4982440;28;87796;-82
2023/06/13 10:06:41;;;;;;;19.00;7.85;;;25.40;47.30;;;;;;4986668;28;87345;-87
2023/06/13 10:09:07;;;;;;;16.45;7.63;;;25.40;47.30;;;;;;4983191;28;88090;-83
2023/06/13 10:11:34;;;;;;;18.60;8.48;;;25.40;47.40;;;;;;4981590;28;88732;-83
2023/06/13 10:14:08;;;;;;;18.45;7.70;;;25.50;47.50;;;;;;4981217;28;88110;-82
2023/06/13 10:16:59;;;;;;;16.92;8.50;;;25.40;47.70;;;;;;4983961;28;87407;-85
2023/06/13 10:19:25;;;;;;;23.00;8.23;;;25.50;47.70;;;;;;4981869;28;87829;-83
2023/06/13 10:21:52;;;;;;;18.48;8.18;;;25.50;47.60;;;;;;4980439;28;88526;-84
2023/06/13 10:24:20;;;;;;;18.45;8.10;;;25.50;47.50;;;;;;4982597;28;87518;-82
2023/06/13 10:26:46;;;;;;;16.98;7.95;;;25.50;47.60;;;;;;4987568;28;87078;-84
2023/06/13 10:29:23;;;;;;;16.95;7.65;;;25.50;47.60;;;;;;4986020;28;86897;-81
2023/06/13 10:32:00;;;;;;;16.98;7.95;;;25.40;47.70;;;;;;4984727;28;88250;-81
2023/06/13 10:34:55;;;;;;;18.17;8.10;;;25.40;47.80;;;;;;4985118;28;88440;-82
2023/06/13 10:37:39;;;;;;;17.23;8.73;;;25.40;47.80;;;;;;4986420;28;88303;-83
2023/06/13 10:40:27;;;;;;;17.67;9.18;;;25.40;47.80;;;;;;4988117;28;87966;-88
2023/06/13 10:43:11;;;;;;;19.95;8.90;;;25.40;47.80;;;;;;4988975;28;88547;-82
2023/06/13 10:45:38;;;;;;;12.95;7.38;;;25.40;47.80;;;;;;4985470;28;88028;-87
2023/06/13 10:48:06;;;;;;;17.83;7.13;;;25.40;48.00;;;;;;4986385;28;87354;-85
2023/06/13 10:50:38;;;;;;;14.23;7.28;;;25.40;47.90;;;;;;4988484;28;87798;-82
2023/06/13 10:53:03;;;;;;;15.68;8.30;;;25.40;48.00;;;;;;4985529;28;87638;-83
2023/06/13 10:55:31;;;;;;;14.40;7.82;;;25.40;47.80;;;;;;4985994;28;87898;-83
2023/06/13 10:57:59;;;;;;;17.47;7.77;;;25.40;48.00;;;;;;4985779;28;87166;-82
2023/06/13 11:00:25;;;;;;;15.20;7.63;;;25.40;48.00;;;;;;4984950;28;87868;-82
2023/06/13 11:03:00;;;;;;;11.50;5.75;;;25.40;47.80;;;;;;4985052;28;88643;-83
2023/06/13 11:05:26;;;;;;;15.77;7.88;;;25.40;47.80;;;;;;4984733;28;88024;-82
2023/06/13 11:07:56;;;;;;;13.00;7.88;;;25.40;47.90;;;;;;4987768;28;87320;-85
2023/06/13 11:10:24;;;;;;;16.75;7.40;;;25.40;47.80;;;;;;4981097;28;87155;-86
2023/06/13 11:12:53;;;;;;;15.50;7.80;;;25.40;47.90;;;;;;4983288;28;89421;-84
2023/06/13 11:15:24;;;;;;;11.90;6.50;;;25.50;48.20;;;;;;4980437;28;87800;-83
2023/06/13 11:18:04;;;;;;;16.23;7.78;;;25.50;47.80;;;;;;4987195;28;88138;-82
2023/06/13 11:20:34;;;;;;;13.85;6.38;;;25.50;47.50;;;;;;4985316;28;87906;-85
2023/06/13 11:23:01;;;;;;;13.25;7.13;;;25.50;47.70;;;;;;4987846;28;88761;-85
2023/06/13 11:25:26;;;;;;;12.85;6.95;;;25.50;48.00;;;;;;4984436;28;89044;-81
2023/06/13 11:27:52;;;;;;;14.70;7.15;;;25.50;47.80;;;;;;4986841;28;88830;-85
2023/06/13 11:30:18;;;;;;;11.23;6.50;;;25.60;47.60;;;;;;4988868;28;87658;-83
2023/06/13 11:32:44;;;;;;;11.88;6.50;;;25.60;47.30;;;;;;4987871;28;88692;-86
2023/06/13 11:35:12;;;;;;;15.15;6.95;;;25.60;47.20;;;;;;4987827;28;88072;-87
2023/06/13 11:37:48;;;;;;;11.75;6.20;;;25.60;47.00;;;;;;4988781;28;87674;-83
2023/06/13 11:40:39;;;;;;;11.32;6.50;;;25.60;46.70;;;;;;4988554;28;87236;-82
2023/06/13 11:43:05;;;;;;;10.70;5.35;;;25.60;46.50;;;;;;4987434;28;88036;-87
2023/06/13 11:45:31;;;;;;;12.02;6.72;;;25.60;46.10;;;;;;4988194;28;87817;-83
2023/06/13 11:47:58;;;;;;;11.73;6.50;;;25.60;45.90;;;;;;4987772;28;87469;-82
2023/06/13 11:50:25;;;;;;;11.48;5.93;;;25.60;45.60;;;;;;4988488;28;87002;-82
2023/06/13 11:53:04;;;;;;;12.18;5.45;;;25.60;45.40;;;;;;4987381;28;89390;-87
2023/06/13 11:55:29;;;;;;;9.23;5.47;;;25.60;45.30;;;;;;4986976;28;88028;-87
2023/06/13 11:57:56;;;;;;;10.68;6.00;;;25.60;44.90;;;;;;4988140;28;87773;-85
2023/06/13 12:00:26;;;;;;;9.30;5.47;;;25.60;44.80;;;;;;4988359;28;87896;-83
2023/06/13 12:02:52;;;;;;;12.90;6.35;;;25.60;44.90;;;;;;4989019;28;87565;-82
2023/06/13 12:05:19;;;;;;;8.88;5.45;;;25.60;44.50;;;;;;4985849;28;88705;-84
2023/06/13 12:07:45;;;;;;;11.05;5.80;;;25.60;44.40;;;;;;4987805;28;88132;-85
2023/06/13 12:10:15;;;;;;;6.97;5.03;;;25.60;44.30;;;;;;4986751;28;87116;-87
2023/06/13 12:12:41;;;;;;;6.78;4.85;;;25.60;43.80;;;;;;4987140;28;88597;-82
2023/06/13 12:15:13;;;;;;;8.70;5.38;;;25.60;43.80;;;;;;4987120;28;88029;-82
2023/06/13 12:18:00;;;;;;;10.15;5.32;;;25.60;43.60;;;;;;4984571;28;88706;-83
2023/06/13 12:20:29;;;;;;;8.90;4.80;;;25.50;43.70;;;;;;4986786;28;87721;-85
2023/06/13 12:22:59;;;;;;;6.68;4.53;;;25.50;43.30;;;;;;4986685;28;88444;-83
2023/06/13 12:25:27;;;;;;;6.85;4.43;;;25.50;43.20;;;;;;4986684;28;87687;-84
2023/06/13 12:27:55;;;;;;;10.73;5.40;;;25.50;42.90;;;;;;4986631;28;88060;-83
2023/06/13 12:30:21;;;;;;;7.45;4.68;;;25.50;43.10;;;;;;4995609;28;88247;-82
2023/06/13 12:32:48;;;;;;;8.45;5.30;;;25.50;43.10;;;;;;4987270;28;88664;-83
2023/06/13 12:35:21;;;;;;;7.53;4.43;;;25.50;43.10;;;;;;4987436;28;88127;-83
2023/06/13 12:38:02;;;;;;;8.93;5.20;;;25.50;42.60;;;;;;4988082;28;88124;-83
2023/06/13 12:40:35;;;;;;;8.68;4.93;;;25.60;42.60;;;;;;4988129;28;87381;-83
2023/06/13 12:43:04;;;;;;;7.40;4.93;;;25.50;42.50;;;;;;4985893;28;89208;-82
2023/06/13 12:45:33;;;;;;;;;;;25.50;42.10;;;;;;4988051;28;88140;-83
2023/06/13 12:48:00;;;;;;;8.85;5.18;;;25.50;42.40;;;;;;4986663;28;88504;-83